createdAt,value
2022-07-26T00:01:41.488Z,8614.28906
2022-07-26T00:16:43.928Z,4356.88623
2022-07-26T00:31:46.325Z,3882.24316
2022-07-26T00:46:48.688Z,8447.68457
2022-07-26T01:01:51.150Z,7991.02051
2022-07-26T01:16:53.572Z,7386.92969
2022-07-26T01:31:55.834Z,6422.06201
2022-07-26T01:46:58.195Z,5688.52295
2022-07-26T02:02:00.680Z,3676.08521
2022-07-26T02:17:03.032Z,922.91675
2022-07-26T02:32:05.305Z,746.72351
2022-07-26T02:47:07.617Z,571.72894
2022-07-26T03:02:09.933Z,401.52872
2022-07-26T03:17:12.251Z,209.7538
2022-07-26T03:32:14.514Z,97.08604
2022-07-26T03:47:16.807Z,29.96483
2022-07-26T04:02:19.154Z,4.79437
2022-07-26T04:17:21.623Z,1.19859
2022-07-26T04:32:23.933Z,0
2022-07-26T04:47:26.254Z,0
2022-07-26T05:02:28.682Z,0
2022-07-26T05:17:31.128Z,0
2022-07-26T05:32:37.565Z,0
2022-07-26T05:47:39.843Z,0
2022-07-26T06:02:42.214Z,0
2022-07-26T06:17:44.641Z,0
2022-07-26T06:32:47.047Z,0
2022-07-26T06:47:49.352Z,0
2022-07-26T07:02:51.860Z,0
2022-07-26T07:17:54.124Z,0
2022-07-26T07:32:56.554Z,0
2022-07-26T07:47:59.000Z,0
2022-07-26T08:03:01.266Z,0
2022-07-26T08:18:03.621Z,0
2022-07-26T08:33:08.858Z,0
2022-07-26T08:48:18.396Z,0
2022-07-26T09:03:21.141Z,0
2022-07-26T09:18:23.515Z,0
2022-07-26T09:33:26.648Z,0
2022-07-26T09:48:36.509Z,0
2022-07-26T10:03:48.717Z,0
2022-07-26T10:18:51.062Z,0
2022-07-26T10:33:53.639Z,0
2022-07-26T10:48:56.099Z,0
2022-07-26T11:03:58.444Z,0
2022-07-26T11:19:00.725Z,0
2022-07-26T11:34:02.976Z,0
2022-07-26T11:49:05.530Z,3.59578
2022-07-26T12:04:08.458Z,21.57468
2022-07-26T12:19:11.161Z,77.90855
2022-07-26T12:34:13.966Z,173.79601
2022-07-26T12:49:16.661Z,291.25815
2022-07-26T13:04:19.266Z,451.86963
2022-07-26T13:19:21.540Z,988.83936
2022-07-26T13:34:23.851Z,1363.99902
2022-07-26T13:49:26.256Z,1675.63318
2022-07-26T14:04:29.117Z,1984.87024
2022-07-26T14:19:31.549Z,2302.49731
2022-07-26T14:34:33.827Z,2419.95947
2022-07-26T14:49:36.243Z,2664.47266
2022-07-26T15:04:38.519Z,2851.45312
2022-07-26T15:19:40.862Z,3081.58301
2022-07-26T15:34:43.163Z,3189.4563
2022-07-26T15:49:45.503Z,3521.46655
2022-07-26T16:04:47.818Z,3839.09375
2022-07-26T16:19:51.102Z,3873.85303
2022-07-26T16:34:53.404Z,4114.77002
2022-07-26T16:49:55.705Z,3962.54883
2022-07-26T17:04:58.175Z,3946.96729
2022-07-26T17:20:00.514Z,3914.60522
2022-07-26T17:35:02.780Z,3903.81787
2022-07-26T18:05:41.079Z,3774.36987
2022-07-26T18:20:43.829Z,3806.73193
2022-07-26T18:35:46.153Z,3737.21338
2022-07-26T18:50:48.413Z,3656.90771
2022-07-26T19:05:53.270Z,3714.44019
2022-07-26T19:20:55.696Z,3763.58252
2022-07-26T19:35:57.993Z,3795.94458
2022-07-26T19:51:00.288Z,3872.65454
2022-07-26T20:06:02.657Z,3918.20093
2022-07-26T20:21:04.973Z,3926.59106
2022-07-26T20:36:07.404Z,4081.20972
2022-07-26T20:51:13.712Z,4281.37451
2022-07-26T21:06:16.435Z,4047.64893
2022-07-26T21:21:18.755Z,3970.93896
2022-07-26T21:36:21.061Z,3897.82495
2022-07-26T21:51:23.371Z,4420.41162
2022-07-26T22:06:25.667Z,4872.28125
2022-07-26T22:21:27.926Z,5394.86768
2022-07-26T22:36:30.379Z,5601.02588
2022-07-26T22:51:32.714Z,5810.77979
2022-07-26T23:06:36.165Z,6387.30273
2022-07-26T23:21:38.509Z,6885.91748
2022-07-26T23:36:40.816Z,7256.28271
2022-07-26T23:51:43.115Z,7667.40039
